Latest Weather Observations for Low Head

IDT60801

Issued at 4:01 pm EST Saturday 29 August 2015 (issued every 30 minutes, with the page automatically refreshed every 10 minutes)

About weather observations | Map of weather stations | Latest weather observations for TAS | Other Formats
Station Details ID: 091293 Name: LOW HEAD Lat: -41.05 Lon: 146.79 Height: 3.0 m
Data from the previous 72 hours. | See also: Recent months at Low Head
Date/Time
EST
Temp
°C
App
Temp
°C
Dew
Point
Rel
Hum
%
Delta-T
°C
Wind Press
QNH
hPa
Press
MSL
hPa
Rain
since 9 am
mm
Dir
 
Spd
km/h
Gust
km/h
Spd
kts
Gust
kts
29/04:00pm 12.0 7.6 5.0 62 3.2 S 17 24 9 13 1019.9 1019.9 0.0
29/03:30pm 12.4 7.4 4.6 59 3.5 S 20 24 11 13 1019.7 1019.7 0.0
29/03:00pm 12.3 8.1 5.5 63 3.1 S 17 20 9 11 1019.5 1019.5 0.0
29/02:30pm 12.4 7.5 6.7 68 2.7 S 22 26 12 14 1019.4 1019.4 0.0
29/02:00pm 12.4 8.1 7.1 70 2.5 SSE 19 24 10 13 1019.3 1019.3 0.0
29/01:30pm 11.8 8.9 6.5 70 2.5 SSE 11 13 6 7 1019.3 1019.3 0.0
29/01:00pm 11.0 9.0 6.2 72 2.2 E 6 9 3 5 1019.4 1019.4 0.0
29/12:30pm 10.7 9.8 5.9 72 2.2 CALM 0 0 0 0 1019.4 1019.4 0.0
29/12:00pm 10.9 8.7 6.1 72 2.2 W 7 11 4 6 1019.8 1019.8 0.0
29/11:30am 11.2 8.4 7.1 76 2.0 WNW 11 15 6 8 1019.8 1019.8 0.0
29/11:00am 9.3 8.3 5.5 77 1.7 CALM 0 0 0 0 1020.0 1020.0 0.0
29/10:30am 8.1 5.6 4.5 78 1.6 SSE 7 11 4 6 1020.1 1020.1 0.0
29/10:00am 8.2 4.9 4.6 78 1.6 SSW 11 20 6 11 1020.0 1020.0 0.0
29/09:30am 7.7 4.4 4.3 79 1.5 SSW 11 13 6 7 1019.9 1019.9 0.0
29/09:00am 7.2 3.8 3.8 79 1.4 SW 11 13 6 7 1019.7 1019.7 0.0
29/08:30am 6.4 3.2 3.2 80 1.3 S 9 11 5 6 1019.7 1019.7 0.0
29/08:00am 6.0 2.8 2.8 80 1.3 S 9 9 5 5 1019.6 1019.6 0.0
29/07:30am 5.8 2.1 2.6 80 1.3 S 11 13 6 7 1019.2 1019.2 0.0
29/07:00am 5.1 0.9 1.8 79 1.3 SSE 13 13 7 7 1019.2 1019.2 0.0
29/06:30am 5.0 0.8 1.5 78 1.4 SSE 13 17 7 9 1018.9 1018.9 0.0
29/06:00am 5.4 0.5 1.7 77 1.5 SSE 17 20 9 11 1018.6 1018.6 0.0
29/05:30am 6.1 2.7 1.8 74 1.7 S 9 13 5 7 1018.2 1018.2 0.0
29/05:00am 6.9 4.9 2.4 73 1.8 SW 2 9 1 5 1017.8 1017.8 0.0
29/04:30am 7.0 4.6 2.3 72 1.9 SW 4 7 2 4 1017.8 1017.8 0.0
29/04:00am 7.6 3.2 2.9 72 2.0 SW 15 19 8 10 1018.0 1018.0 0.0
29/03:30am 7.2 3.1 2.3 71 2.0 SW 13 19 7 10 1018.3 1018.3 0.0
29/03:00am 6.8 2.2 1.7 70 2.1 SSW 15 22 8 12 1018.9 1018.9 0.0
29/02:30am 7.1 1.2 1.6 68 2.2 WSW 22 26 12 14 1019.4 1019.4 0.0
29/02:00am 7.4 -0.1 1.0 64 2.6 WSW 30 35 16 19 1019.7 1019.7 0.0
29/01:30am 7.5 -1.0 1.1 64 2.6 WSW 35 41 19 22 1020.2 1020.2 0.0
29/01:00am 7.4 -2.7 0.6 62 2.7 WSW 43 46 23 25 1020.6 1020.6 0.0
29/12:30am 7.2 -0.8 0.2 61 2.7 WSW 32 35 17 19 1021.2 1021.2 0.0
29/12:00am 7.3 0.0 -0.2 59 2.9 WSW 28 32 15 17 1021.9 1021.9 0.0
 
Date/Time
EST
Temp
°C
App
Temp
°C
Dew
Point
Rel
Hum
%
Delta-T
°C
Wind Press
QNH
hPa
Press
MSL
hPa
Rain
since 9 am
mm
Dir
 
Spd
km/h
Gust
km/h
Spd
kts
Gust
kts
28/11:30pm 7.4 0.9 0.4 61 2.8 WSW 24 30 13 16 1022.4 1022.4 0.0
28/11:00pm 6.9 1.3 0.1 62 2.6 WSW 19 24 10 13 1023.0 1023.0 0.0
28/10:30pm 7.0 1.1 -1.9 53 3.3 W 19 24 10 13 1023.6 1023.6 0.0
28/10:00pm 7.4 1.4 -1.8 52 3.4 WSW 20 24 11 13 1024.1 1024.1 0.0
28/09:30pm 7.7 1.2 -2.3 49 3.7 SW 22 26 12 14 1024.2 1024.2 0.0
28/09:00pm 7.7 1.3 -1.8 51 3.5 SSW 22 26 12 14 1024.4 1024.4 0.0
28/08:30pm 8.0 0.4 -2.0 49 3.7 SSW 28 33 15 18 1024.3 1024.3 0.0
28/08:00pm 7.2 1.9 -0.7 57 3.0 S 17 20 9 11 1024.4 1024.4 0.0
28/07:30pm 6.6 1.6 1.1 68 2.2 SSE 17 22 9 12 1024.1 1024.1 0.0
28/07:00pm 6.6 1.5 0.5 65 2.4 SE 17 24 9 13 1024.1 1024.1 0.0
28/06:30pm 7.0 1.2 0.0 61 2.7 SE 20 30 11 16 1024.1 1024.1 0.0
28/06:00pm 7.9 3.1 0.2 58 3.0 SE 15 20 8 11 1023.8 1023.8 0.0
28/05:30pm 8.6 4.6 0.3 56 3.3 SE 11 15 6 8 1023.5 1023.5 0.0
28/05:00pm 9.3 4.9 0.5 54 3.5 SSE 13 19 7 10 1023.4 1023.4 0.0
28/04:30pm 10.1 6.2 1.0 53 3.7 SE 11 19 6 10 1023.2 1023.2 0.0
28/04:00pm 9.8 4.6 0.4 52 3.8 SE 17 26 9 14 1023.2 1023.2 0.0
28/03:30pm 9.6 4.0 0.2 52 3.8 SE 19 28 10 15 1023.3 1023.3 0.0
28/03:00pm 10.0 4.7 -0.5 48 4.1 SE 17 24 9 13 1023.1 1023.1 0.0
28/02:30pm 11.1 4.5 -0.7 44 4.7 SSE 24 35 13 19 1023.3 1023.3 0.0
28/02:00pm 11.2 3.4 -0.9 43 4.8 S 30 37 16 20 1023.4 1023.4 0.0
28/01:30pm 11.1 2.9 0.5 48 4.4 S 33 46 18 25 1023.5 1023.5 0.0
28/01:00pm 11.3 3.9 -0.5 44 4.7 SSE 28 35 15 19 1023.8 1023.8 0.0
28/12:30pm 10.7 3.4 -0.1 47 4.4 S 28 41 15 22 1024.0 1024.0 0.0
28/12:00pm 10.5 2.2 -0.3 47 4.3 S 33 43 18 23 1024.5 1024.5 0.0
28/11:30am 10.2 1.4 -0.9 46 4.4 SSE 35 44 19 24 1024.8 1024.8 0.0
28/11:00am 9.9 0.6 0.8 53 3.7 S 39 48 21 26 1024.8 1024.8 0.0
28/10:30am 9.7 0.3 0.1 51 3.9 S 39 50 21 27 1024.9 1024.9 0.0
28/10:00am 9.5 2.8 3.5 66 2.6 SSE 28 39 15 21 1024.8 1024.8 0.0
28/09:30am 8.8 2.1 3.8 71 2.2 SSE 28 39 15 21 1024.7 1024.7 0.0
28/09:00am 8.3 0.7 3.0 69 2.2 SSE 32 46 17 25 1024.7 1024.7 0.0
28/08:37am 8.0 -0.1 3.1 71 2.1 SSE 35 57 19 31 1024.4 1024.4 0.0
28/08:30am 8.0 0.9 3.3 72 2.0 SSE 30 41 16 22 1024.4 1024.4 0.0
28/08:23am 8.0 1.3 3.5 73 1.9 SSE 28 46 15 25 1024.3 1024.3 0.0
28/08:00am 7.8 0.7 3.3 73 1.9 SSE 30 44 16 24 1024.0 1024.0 0.0
28/07:30am 7.6 0.1 3.6 76 1.7 SSE 32 44 17 24 1023.6 1023.6 0.0
28/07:00am 7.6 0.6 4.2 79 1.5 SSE 30 43 16 23 1023.1 1023.1 0.0
28/06:30am 8.0 0.8 4.8 80 1.4 SSE 32 41 17 22 1022.7 1022.7 0.0
28/06:00am 7.9 1.8 4.7 80 1.4 S 26 33 14 18 1022.4 1022.4 0.0
28/05:30am 7.6 2.6 4.7 82 1.3 SSE 20 26 11 14 1022.1 1022.1 0.0
28/05:00am 7.8 2.1 4.9 82 1.3 S 24 30 13 16 1021.7 1021.7 0.0
28/04:30am 8.1 2.9 5.4 83 1.2 S 22 28 12 15 1021.4 1021.4 0.0
28/04:00am 8.2 3.0 5.3 82 1.3 S 22 28 12 15 1021.2 1021.2 0.0
28/03:30am 8.5 2.9 5.4 81 1.4 SSE 24 32 13 17 1021.0 1021.0 0.0
28/03:00am 8.5 2.9 5.4 81 1.4 S 24 30 13 16 1021.0 1021.0 0.0
28/02:30am 8.4 4.2 5.5 82 1.3 S 17 20 9 11 1021.1 1021.1 0.0
28/02:00am 8.8 4.1 5.9 82 1.3 S 20 26 11 14 1021.2 1021.2 0.0
28/01:30am 9.1 4.0 6.2 82 1.3 S 22 28 12 15 1021.4 1021.4 0.0
28/01:00am 9.3 4.9 6.6 83 1.2 S 19 24 10 13 1021.4 1021.4 0.0
28/12:30am 9.4 4.9 6.8 84 1.2 S 20 24 11 13 1021.2 1021.2 0.0
28/12:00am 8.6 5.6 6.2 85 1.1 SSE 11 15 6 8 1021.2 1021.2 0.0
 
Date/Time
EST
Temp
°C
App
Temp
°C
Dew
Point
Rel
Hum
%
Delta-T
°C
Wind Press
QNH
hPa
Press
MSL
hPa
Rain
since 9 am
mm
Dir
 
Spd
km/h
Gust
km/h
Spd
kts
Gust
kts
27/11:30pm 8.7 6.5 6.3 85 1.1 SSE 7 11 4 6 1021.2 1021.2 0.0
27/11:00pm 9.1 6.2 6.5 84 1.2 SE 11 15 6 8 1021.3 1021.3 0.0
27/10:30pm 9.2 5.9 6.6 84 1.2 SSE 13 17 7 9 1021.3 1021.3 0.0
27/10:00pm 10.2 6.8 7.6 84 1.2 SSE 15 17 8 9 1021.3 1021.3 0.0
27/09:30pm 10.1 7.1 7.5 84 1.2 SSE 13 17 7 9 1021.3 1021.3 0.0
27/09:00pm 10.8 8.3 8.0 83 1.4 SE 11 13 6 7 1021.1 1021.1 0.0
27/08:30pm 11.1 8.2 8.3 83 1.4 SE 13 15 7 8 1020.9 1020.9 0.0
27/08:00pm 11.3 8.5 8.5 83 1.4 ESE 13 15 7 8 1020.7 1020.7 0.0
27/07:30pm 11.2 9.7 8.6 84 1.3 S 6 9 3 5 1020.4 1020.4 0.0
27/07:00pm 11.7 7.9 8.9 83 1.4 WSW 19 24 10 13 1020.1 1020.1 0.0
27/06:30pm 11.6 7.2 8.8 83 1.4 WSW 22 26 12 14 1020.0 1020.0 0.0
27/06:00pm 11.5 7.5 8.4 81 1.5 W 19 20 10 11 1019.6 1019.6 0.0
27/05:30pm 11.8 7.9 8.5 80 1.6 W 19 22 10 12 1019.5 1019.5 0.0
27/05:00pm 12.4 8.5 8.7 78 1.8 W 19 20 10 11 1019.1 1019.1 0.0
27/04:30pm 12.7 8.8 8.8 77 2.0 W 19 20 10 11 1019.1 1019.1 0.0
27/04:00pm 13.7 9.9 9.2 74 2.3 WNW 19 20 10 11 1019.1 1019.1 0.0
27/03:30pm 14.5 11.7 9.9 74 2.4 NW 15 17 8 9 1019.1 1019.1 0.0
27/03:00pm 14.0 10.7 9.4 74 2.3 WNW 17 19 9 10 1019.2 1019.2 0.0
27/02:30pm 14.8 11.6 9.8 72 2.6 WNW 17 17 9 9 1019.3 1019.3 0.0
27/02:00pm 14.4 11.8 9.4 72 2.6 WNW 13 15 7 8 1019.5 1019.5 0.0
27/01:30pm 13.5 10.0 8.6 72 2.5 WNW 17 20 9 11 1019.9 1019.9 0.0
27/01:00pm 14.6 11.1 8.8 68 2.9 S 17 20 9 11 1020.3 1020.3 0.0
27/12:30pm 13.7 9.8 8.7 72 2.5 S 19 20 10 11 1020.8 1020.8 0.0
27/12:00pm 13.4 9.6 8.9 74 2.3 S 19 22 10 12 1021.4 1021.4 0.0
27/11:30am 12.5 8.9 8.4 76 2.0 SSE 17 22 9 12 1021.9 1021.9 0.0
27/11:00am 12.4 8.5 8.7 78 1.8 SSE 19 24 10 13 1022.1 1022.1 0.0
27/10:30am 11.5 7.0 8.4 81 1.5 S 22 24 12 13 1022.4 1022.4 0.0
27/10:00am 10.9 6.3 8.0 82 1.4 SSE 22 26 12 14 1022.6 1022.6 0.0
27/09:30am 10.3 5.6 7.9 85 1.2 SSE 22 26 12 14 1022.9 1022.9 0.0
27/09:00am 9.9 5.2 7.8 87 1.0 SSE 22 26 12 14 1023.2 1023.2 0.0
27/08:30am 9.5 4.0 7.6 88 0.9 S 26 30 14 16 1023.2 1023.2 0.0
27/08:00am 9.3 4.6 7.6 89 0.8 SSE 22 28 12 15 1023.3 1023.3 0.0
27/07:30am 9.1 4.3 7.4 89 0.8 SSE 22 26 12 14 1023.0 1023.0 0.0
27/07:00am 8.9 4.1 7.2 89 0.8 SSE 22 30 12 16 1022.8 1022.8 0.0
27/06:30am 9.0 4.6 7.3 89 0.8 SSE 20 26 11 14 1022.6 1022.6 0.0
27/06:00am 9.0 4.8 7.3 89 0.8 SSE 19 24 10 13 1022.6 1022.6 0.0
27/05:30am 9.2 4.8 7.3 88 0.9 SSE 20 26 11 14 1022.6 1022.6 0.0
27/05:00am 9.2 4.8 7.3 88 0.9 SSE 20 26 11 14 1022.6 1022.6 0.0
27/04:30am 9.1 4.7 7.2 88 0.9 SSE 20 26 11 14 1022.7 1022.7 0.0
27/04:00am 9.1 4.3 7.2 88 0.9 SSE 22 28 12 15 1022.9 1022.9 0.0
27/03:30am 9.1 4.7 7.2 88 0.9 SSE 20 24 11 13 1023.2 1023.2 0.0
27/03:00am 9.0 4.8 7.3 89 0.8 SSE 19 22 10 12 1023.6 1023.6 0.0
27/02:30am 9.1 5.3 7.4 89 0.8 SSE 17 19 9 10 1024.0 1024.0 0.0
27/02:00am 9.1 5.6 7.4 89 0.8 SSE 15 19 8 10 1024.5 1024.5 0.0
27/01:30am 9.2 5.7 7.3 88 0.9 SSE 15 17 8 9 1024.9 1024.9 0.0
27/01:00am 9.2 6.1 7.3 88 0.9 SSE 13 17 7 9 1025.3 1025.3 0.0
27/12:30am 9.4 6.0 7.5 88 0.9 SSE 15 19 8 10 1025.4 1025.4 0.0
27/12:00am 9.1 6.3 7.1 87 0.9 SSE 11 17 6 9 1025.6 1025.6 0.0
 
Date/Time
EST
Temp
°C
App
Temp
°C
Dew
Point
Rel
Hum
%
Delta-T
°C
Wind Press
QNH
hPa
Press
MSL
hPa
Rain
since 9 am
mm
Dir
 
Spd
km/h
Gust
km/h
Spd
kts
Gust
kts
26/11:30pm 9.4 6.7 7.3 87 1.0 SSE 11 15 6 8 1025.9 1025.9 0.0
26/11:00pm 9.7 6.7 7.5 86 1.0 SSE 13 15 7 8 1026.1 1026.1 0.0
26/10:30pm 9.5 6.7 7.1 85 1.1 SSE 11 13 6 7 1026.4 1026.4 0.0
26/10:00pm 9.5 7.0 6.6 82 1.3 SE 9 13 5 7 1026.8 1026.8 0.0
26/09:30pm 10.0 6.4 6.9 81 1.5 E 15 17 8 9 1026.9 1026.9 0.0
26/09:00pm 10.9 6.5 7.2 78 1.8 ENE 20 28 11 15 1027.2 1027.2 0.0
26/08:30pm 10.8 8.0 6.9 77 1.8 E 11 19 6 10 1027.3 1027.3 0.0
26/08:00pm 10.7 9.9 6.6 76 1.9 CALM 0 0 0 0 1027.1 1027.1 0.0
26/07:30pm 11.3 7.4 7.2 76 2.0 ENE 17 20 9 11 1027.3 1027.3 0.0
26/07:00pm 11.7 8.6 7.4 75 2.1 E 13 17 7 9 1027.2 1027.2 0.0
26/06:30pm 11.7 8.2 7.2 74 2.2 ENE 15 19 8 10 1027.1 1027.1 0.0
26/06:00pm 12.1 9.7 7.0 71 2.4 ENE 9 11 5 6 1027.1 1027.1 0.0
26/05:30pm 12.4 9.4 6.0 65 3.0 ENE 11 17 6 9 1026.9 1026.9 0.0
26/05:00pm 12.7 10.5 5.4 61 3.4 ENE 6 13 3 7 1027.0 1027.0 0.0
26/04:30pm 12.6 11.4 4.8 59 3.6 CALM 0 0 0 0 1026.9 1026.9 0.0

Other Formats:

Comma delimited format used in spreadsheet applications
http://www.bom.gov.au/fwo/IDT60801/IDT60801.95964.axf

JavaScript Object Notation format (JSON) in row-major order
http://www.bom.gov.au/fwo/IDT60801/IDT60801.95964.json